Vb Spartel — CNA4278 — position and weather

sailwx.info

Track history (hours):
 
Tides and Currents Weather Stations Pressure Air Temp Water Temp Dewpoint Dewpoint Depression Visibility Wind Speed Wind Dir Waves Ship Positions

Vb Spartel

Last reported at 2018-Jan-10 15:16 UTC. Time now 2018-Feb-20 00:04 UTC.
Position N 35°47' W 005°48'.
Warning: this ship's position is 40 days out of date.

Length 28 m; draft 4.9 m.

Type: Other ship. MMSI: 242906000.

Date/timePositionNaut miles runAvg speedWind from/ knotsBaromVisibWave heightAir tempDewpointWater temp
2018-Jan-10 15:16N 35°47' W 005°48'6 0.9
2018-Jan-10 08:47N 35°53' W 005°46'413.1
2018-Jan-10 08:30N 35°56' W 005°45'510.1
2018-Jan-10 08:00N 35°57' W 005°39'611.8
2018-Jan-10 07:30N 35°58' W 005°32'4 8.4
2018-Jan-10 06:59N 35°54' W 005°29'0 0.0
2018-Jan-10 05:41N 35°54' W 005°29'0 0.0
2018-Jan-10 05:26N 35°54' W 005°29'0 0.0
2018-Jan-10 04:59N 35°54' W 005°29'0 0.0
2018-Jan-10 04:29N 35°54' W 005°29'0 0.0
2018-Jan-10 03:59N 35°54' W 005°29'0 0.0
2018-Jan-10 02:11N 35°54' W 005°29'0 0.0
2018-Jan-09 23:17N 35°54' W 005°29'2 3.0
2018-Jan-09 22:42N 35°53' W 005°31'0 0.5
2018-Jan-09 22:30N 35°53' W 005°31'0 0.4
2018-Jan-09 21:57N 35°53' W 005°31'0 0.2
2018-Jan-09 21:17N 35°53' W 005°31'1 2.9
2018-Jan-09 20:59N 35°54' W 005°31'2 1.1
2018-Jan-09 19:35N 35°54' W 005°29'0 0.0
2018-Jan-09 19:05N 35°54' W 005°29'0 0.0
2018-Jan-09 16:41N 35°54' W 005°29'0 0.0
2018-Jan-09 16:17N 35°54' W 005°29'0 1.3
2018-Jan-09 15:55N 35°54' W 005°30'0 0.6
2018-Jan-09 15:07N 35°54' W 005°29'0 0.0
2018-Jan-09 14:52N 35°54' W 005°29'0 0.3
2018-Jan-09 14:28N 35°54' W 005°29'0 0.1
2018-Jan-09 13:28N 35°54' W 005°29'0 0.0
2018-Jan-09 12:37N 35°54' W 005°29'0 0.0
2018-Jan-09 12:25N 35°54' W 005°29'0 0.0
2018-Jan-09 11:58N 35°54' W 005°29'0 0.0
2018-Jan-09 11:25N 35°54' W 005°29'0 0.6
2018-Jan-09 10:56N 35°54' W 005°30'0 0.4
2018-Jan-09 10:13N 35°54' W 005°29'0 0.0
2018-Jan-09 09:53N 35°54' W 005°29'0 0.9
2018-Jan-09 09:30N 35°54' W 005°30'0 0.7
2018-Jan-09 08:58N 35°54' W 005°29'0 0.0
2018-Jan-09 08:13N 35°54' W 005°29'0 0.0
2018-Jan-09 07:58N 35°54' W 005°29'0 0.0
2018-Jan-09 07:28N 35°54' W 005°29'0 0.0
2018-Jan-09 06:58N 35°54' W 005°29'  
Track history (hours):
 
Tides and Currents Weather Stations Pressure Air Temp Water Temp Dewpoint Dewpoint Depression Visibility Wind Speed Wind Dir Waves Ship Positions

Vb Spartel

Last reported at 2018-Jan-10 15:16 UTC. Time now 2018-Feb-20 00:04 UTC.
Position N 35°47' W 005°48'.
Warning: this ship's position is 40 days out of date.

Length 28 m; draft 4.9 m.

Type: Other ship. MMSI: 242906000.

Date/timePositionNaut miles runAvg speedWind from/ knotsBaromVisibWave heightAir tempDewpointWater temp
2018-Jan-10 15:16N 35°47' W 005°48'6 0.9
2018-Jan-10 08:47N 35°53' W 005°46'413.1
2018-Jan-10 08:30N 35°56' W 005°45'510.1
2018-Jan-10 08:00N 35°57' W 005°39'611.8
2018-Jan-10 07:30N 35°58' W 005°32'4 8.4
2018-Jan-10 06:59N 35°54' W 005°29'0 0.0
2018-Jan-10 05:41N 35°54' W 005°29'0 0.0
2018-Jan-10 05:26N 35°54' W 005°29'0 0.0
2018-Jan-10 04:59N 35°54' W 005°29'0 0.0
2018-Jan-10 04:29N 35°54' W 005°29'0 0.0
2018-Jan-10 03:59N 35°54' W 005°29'0 0.0
2018-Jan-10 02:11N 35°54' W 005°29'0 0.0
2018-Jan-09 23:17N 35°54' W 005°29'2 3.0
2018-Jan-09 22:42N 35°53' W 005°31'0 0.5
2018-Jan-09 22:30N 35°53' W 005°31'0 0.4
2018-Jan-09 21:57N 35°53' W 005°31'0 0.2
2018-Jan-09 21:17N 35°53' W 005°31'1 2.9
2018-Jan-09 20:59N 35°54' W 005°31'2 1.1
2018-Jan-09 19:35N 35°54' W 005°29'0 0.0
2018-Jan-09 19:05N 35°54' W 005°29'0 0.0
2018-Jan-09 16:41N 35°54' W 005°29'0 0.0
2018-Jan-09 16:17N 35°54' W 005°29'0 1.3
2018-Jan-09 15:55N 35°54' W 005°30'0 0.6
2018-Jan-09 15:07N 35°54' W 005°29'0 0.0
2018-Jan-09 14:52N 35°54' W 005°29'0 0.3
2018-Jan-09 14:28N 35°54' W 005°29'0 0.1
2018-Jan-09 13:28N 35°54' W 005°29'0 0.0
2018-Jan-09 12:37N 35°54' W 005°29'0 0.0
2018-Jan-09 12:25N 35°54' W 005°29'0 0.0
2018-Jan-09 11:58N 35°54' W 005°29'0 0.0
2018-Jan-09 11:25N 35°54' W 005°29'0 0.6
2018-Jan-09 10:56N 35°54' W 005°30'0 0.4
2018-Jan-09 10:13N 35°54' W 005°29'0 0.0
2018-Jan-09 09:53N 35°54' W 005°29'0 0.9
2018-Jan-09 09:30N 35°54' W 005°30'0 0.7
2018-Jan-09 08:58N 35°54' W 005°29'0 0.0
2018-Jan-09 08:13N 35°54' W 005°29'0 0.0
2018-Jan-09 07:58N 35°54' W 005°29'0 0.0
2018-Jan-09 07:28N 35°54' W 005°29'0 0.0
2018-Jan-09 06:58N 35°54' W 005°29'  

Dump ship's entire track history